Tutti
Bornholm Airport (Ronne) RNN Meteo
|
Ronne (RNN / EKRN)
Cielo sereno
Venti leggeri |
|
16 °C |
Previsione area Terminal RNN
| Date | Time (CEST) | Flight Rules | Wind Dir. | Speed | Type | Height AGL (ft) | Visibility | Remarks | ||||||
|---|---|---|---|---|---|---|---|---|---|---|---|---|---|---|
| 03-mag | 01:00 | VFR | 180° | 8 kt | Few | 7.000 | >= 6 miles | |||||||
| 03-mag | 00:00 | VFR | 180° | 8 kt | Few | 20.000 | >= 6 miles | |||||||
| 02-mag | 23:00 | VFR | 180° | 8 kt | Few | 20.000 | >= 6 miles | |||||||
| 02-mag | 22:00 | VFR | 180° | 8 kt | Few | 20.000 | >= 6 miles | |||||||
| 02-mag | 21:00 | VFR | 180° | 8 kt | Few | 20.000 | >= 6 miles | |||||||
| 02-mag | 20:00 | VFR | 180° | 8 kt | Few | 20.000 | >= 6 miles | |||||||
| 02-mag | 19:00 | VFR | 180° | 8 kt | Few | 20.000 | >= 6 miles | |||||||
| 02-mag | 18:00 | VFR | 180° | 8 kt | Few | 20.000 | >= 6 miles | |||||||
Storico METAR RNN recente
| Date | Time (CEST) | Flight Rules | Wind Dir. | Speed | Type | Height AGL (ft) | Visibility | Temp (°C) | Temp (°F) | Dew Point (°C) | Dew Point (°F) | Rel. Humid. | Pressure | Density Altitude | Remarks |
|---|---|---|---|---|---|---|---|---|---|---|---|---|---|---|---|
| 02-mag | 18:50 | VFR | 180° | 7 kt | 10000 meters | 16° | 60° | 6° | 42° | 51% | 1015 mb | 119 ft | |||
| 02-mag | 18:20 | VFR | 170° | 7 kt | 10000 meters | 15° | 59° | 7° | 44° | 59% | 1015 mb | -1 ft | |||
| 02-mag | 17:50 | VFR | 160° | 6 kt | 10000 meters | 14° | 57° | 7° | 44° | 63% | 1015 mb | -121 ft | |||
| 02-mag | 17:20 | VFR | 160° | 5 kt | 10000 meters | 15° | 59° | 7° | 44° | 59% | 1016 mb | -30 ft | |||
| 02-mag | 16:50 | VFR | 170° | 7 kt | 10000 meters | 15° | 59° | 7° | 44° | 59% | 1016 mb | -30 ft | |||
| 02-mag | 16:20 | VFR | 170° | 7 kt | 10000 meters | 15° | 59° | 7° | 44° | 59% | 1017 mb | -60 ft | |||
| 02-mag | 15:50 | VFR | 170° | 5 kt | 10000 meters | 15° | 59° | 7° | 44° | 59% | 1017 mb | -60 ft | |||
| 02-mag | 15:20 | VFR | 180° | 10 kt | 10000 meters | 16° | 60° | 7° | 44° | 55% | 1018 mb | 30 ft | |||
| 02-mag | 14:50 | VFR | 180° | 7 kt | 10000 meters | 15° | 59° | 7° | 44° | 59% | 1018 mb | -90 ft | |||
| 02-mag | 14:20 | VFR | 180° | 7 kt | 10000 meters | 15° | 59° | 7° | 44° | 59% | 1019 mb | -119 ft | |||
| 02-mag | 13:50 | VFR | 170° | 8 kt | 10000 meters | 14° | 57° | 7° | 44° | 63% | 1019 mb | -239 ft | |||
| 02-mag | 13:20 | VFR | 170° | 7 kt | 10000 meters | 14° | 57° | 7° | 44° | 63% | 1019 mb | -239 ft | |||
| 02-mag | 12:50 | VFR | 170° | 7 kt | 10000 meters | 13° | 55° | 7° | 44° | 67% | 1020 mb | -389 ft | Wind gusting to 17 KT | ||
| 02-mag | 12:20 | VFR | 160° | 8 kt | 10000 meters | 13° | 55° | 7° | 44° | 67% | 1020 mb | -389 ft | |||
| 02-mag | 11:50 | VFR | 160° | 8 kt | 10000 meters | 12° | 53° | 7° | 44° | 71% | 1020 mb | -509 ft | |||
| 02-mag | 11:20 | VFR | 160° | 7 kt | 10000 meters | 13° | 55° | 6° | 42° | 62% | 1021 mb | -418 ft | |||
| 02-mag | 10:50 | VFR | 160° | 4 kt | 10000 meters | 12° | 53° | 7° | 44° | 71% | 1021 mb | -538 ft | |||
| 02-mag | 10:20 | VFR | 150° | 4 kt | 10000 meters | 11° | 51° | 7° | 44° | 76% | 1021 mb | -658 ft | |||
| 02-mag | 09:50 | VFR | 170° | 6 kt | 10000 meters | 12° | 53° | 6° | 42° | 67% | 1021 mb | -538 ft | |||
| 02-mag | 09:20 | VFR | 180° | 5 kt | 10000 meters | 12° | 53° | 6° | 42° | 67% | 1021 mb | -538 ft | |||
| 02-mag | 08:50 | VFR | 180° | 4 kt | 10000 meters | 11° | 51° | 6° | 42° | 71% | 1021 mb | -658 ft | |||
| 02-mag | 08:20 | VFR | 150° | 3 kt | 10000 meters | 11° | 51° | 5° | 41° | 66% | 1022 mb | -688 ft | |||
| 02-mag | 07:50 | VFR | 160° | 4 kt | 10000 meters | 11° | 51° | 5° | 41° | 66% | 1022 mb | -688 ft | |||
| 02-mag | 07:20 | VFR | 150° | 4 kt | 10000 meters | 12° | 53° | 4° | 39° | 58% | 1022 mb | -568 ft |
Accedi
| Il tuo browser non è supportato. fai l'upgrade del tuo browser |
